createdAt,value
2022-09-25T00:01:16.157Z,11.45
2022-09-25T00:03:43.982Z,12.00
2022-09-25T00:06:15.272Z,11.88
2022-09-25T00:08:42.804Z,10.77
2022-09-25T00:11:13.370Z,12.98
2022-09-25T00:13:41.633Z,9.80
2022-09-25T00:16:14.432Z,12.45
2022-09-25T00:19:00.570Z,10.93
2022-09-25T00:21:30.493Z,13.43
2022-09-25T00:24:03.636Z,11.05
2022-09-25T00:26:33.579Z,10.27
2022-09-25T00:29:01.554Z,10.98
2022-09-25T00:31:29.868Z,8.82
2022-09-25T00:33:59.497Z,13.57
2022-09-25T00:36:27.626Z,10.32
2022-09-25T00:38:55.074Z,12.20
2022-09-25T00:41:25.856Z,9.38
2022-09-25T00:43:56.389Z,10.60
2022-09-25T00:46:30.745Z,10.23
2022-09-25T00:49:11.154Z,6.97
2022-09-25T00:51:54.812Z,8.02
2022-09-25T00:54:27.455Z,8.70
2022-09-25T00:56:56.723Z,9.63
2022-09-25T00:59:31.385Z,8.80
2022-09-25T01:01:59.449Z,9.60
2022-09-25T01:04:29.424Z,8.95
2022-09-25T01:06:57.473Z,9.77
2022-09-25T01:09:25.082Z,10.45
2022-09-25T01:11:53.464Z,7.90
2022-09-25T01:14:20.904Z,11.12
2022-09-25T01:17:02.808Z,9.10
2022-09-25T01:19:50.149Z,8.95
2022-09-25T01:22:30.776Z,7.70
2022-09-25T01:25:12.004Z,11.45
2022-09-25T01:28:05.625Z,7.82
2022-09-25T01:30:37.976Z,8.60
2022-09-25T01:33:19.944Z,9.85
2022-09-25T01:36:02.699Z,10.73
2022-09-25T01:38:33.558Z,10.82
2022-09-25T01:41:32.778Z,13.05
2022-09-25T01:44:03.546Z,11.02
2022-09-25T01:46:36.258Z,9.80
2022-09-25T01:49:08.629Z,9.20
2022-09-25T01:51:39.439Z,8.55
2022-09-25T01:54:12.759Z,9.70
2022-09-25T01:56:50.060Z,9.63
2022-09-25T01:59:26.115Z,10.27
2022-09-25T02:01:55.088Z,12.25
2022-09-25T02:04:32.606Z,9.13
2022-09-25T02:07:04.747Z,8.02
2022-09-25T02:09:43.782Z,10.05
2022-09-25T02:12:18.051Z,10.98
2022-09-25T02:14:49.989Z,8.88
2022-09-25T02:17:43.069Z,11.23
2022-09-25T02:20:29.336Z,10.45
2022-09-25T02:23:01.169Z,9.63
2022-09-25T02:25:44.067Z,9.35
2022-09-25T02:28:11.555Z,9.90
2022-09-25T02:30:39.317Z,7.93
2022-09-25T02:33:06.781Z,10.55
2022-09-25T02:35:34.228Z,9.10
2022-09-25T02:38:02.949Z,10.32
2022-09-25T02:40:44.282Z,9.27
2022-09-25T02:43:28.055Z,10.50
2022-09-25T02:46:23.266Z,12.40
2022-09-25T02:49:06.715Z,13.15
2022-09-25T02:51:47.961Z,9.80
2022-09-25T02:54:21.490Z,10.73
2022-09-25T02:57:33.832Z,10.77
2022-09-25T03:00:05.566Z,7.30
2022-09-25T03:02:34.863Z,7.87
2022-09-25T03:05:04.046Z,8.07
2022-09-25T03:07:52.095Z,8.85
2022-09-25T03:10:19.976Z,8.65
2022-09-25T03:12:47.459Z,9.48
2022-09-25T03:15:14.890Z,9.75
2022-09-25T03:17:43.633Z,9.20
2022-09-25T03:20:11.117Z,8.38
2022-09-25T03:22:38.561Z,8.38
2022-09-25T03:25:06.538Z,9.45
2022-09-25T03:27:33.985Z,7.70
2022-09-25T03:30:02.471Z,10.27
2022-09-25T03:32:30.184Z,10.20
2022-09-25T03:34:57.748Z,6.60
2022-09-25T03:37:25.451Z,9.15
2022-09-25T03:39:53.163Z,7.60
2022-09-25T03:42:20.646Z,9.88
2022-09-25T03:44:48.069Z,7.70
2022-09-25T03:47:15.774Z,8.82
2022-09-25T03:49:43.177Z,9.02
2022-09-25T03:52:12.892Z,11.07
2022-09-25T03:54:41.197Z,9.73
2022-09-25T03:57:08.651Z,8.70
2022-09-25T03:59:36.085Z,10.88
2022-09-25T04:02:03.798Z,11.50
2022-09-25T04:04:32.219Z,10.18
2022-09-25T04:06:59.656Z,7.93
2022-09-25T04:09:27.069Z,10.10
2022-09-25T04:11:56.281Z,8.38
2022-09-25T04:14:24.104Z,8.82
2022-09-25T04:16:52.061Z,11.88
2022-09-25T04:19:19.849Z,12.10
2022-09-25T04:21:47.607Z,15.32
2022-09-25T04:24:33.694Z,14.77
2022-09-25T04:27:01.563Z,12.23
2022-09-25T04:29:29.137Z,13.07
2022-09-25T04:32:14.967Z,13.77
2022-09-25T04:34:42.853Z,12.82
2022-09-25T04:37:10.595Z,13.20
2022-09-25T04:39:38.031Z,12.95
2022-09-25T04:42:06.301Z,9.43
2022-09-25T04:44:33.770Z,9.98
2022-09-25T04:47:01.169Z,10.55
2022-09-25T04:49:29.295Z,9.70
2022-09-25T04:51:57.009Z,7.15
2022-09-25T04:54:24.452Z,8.25
2022-09-25T04:56:52.468Z,9.63
2022-09-25T04:59:19.888Z,9.20
2022-09-25T05:01:47.950Z,8.40
2022-09-25T05:04:16.273Z,9.13
2022-09-25T05:06:43.847Z,10.80
2022-09-25T05:09:11.303Z,10.77
2022-09-25T05:11:39.121Z,9.90
2022-09-25T05:14:06.985Z,9.27
2022-09-25T05:16:34.654Z,11.38
2022-09-25T05:19:02.418Z,11.90
2022-09-25T05:21:29.894Z,12.95
2022-09-25T05:23:57.326Z,11.98
2022-09-25T05:26:25.651Z,12.88
2022-09-25T05:28:53.166Z,10.63
2022-09-25T05:31:20.761Z,13.65
2022-09-25T05:33:48.956Z,11.45
2022-09-25T05:36:18.851Z,13.18
2022-09-25T05:38:46.634Z,12.65
2022-09-25T05:41:14.364Z,13.40
2022-09-25T05:43:44.062Z,13.10
2022-09-25T05:46:11.892Z,11.95
2022-09-25T05:48:39.952Z,12.55
2022-09-25T05:51:07.471Z,12.32
2022-09-25T05:53:34.993Z,13.82
2022-09-25T05:56:03.880Z,14.02
2022-09-25T05:58:33.610Z,12.73
2022-09-25T06:01:05.106Z,15.00
2022-09-25T06:03:33.081Z,14.27
2022-09-25T06:06:00.642Z,15.90
2022-09-25T06:08:31.620Z,13.95
2022-09-25T06:11:00.821Z,15.43
2022-09-25T06:13:30.183Z,14.50
2022-09-25T06:15:57.720Z,13.85
2022-09-25T06:18:26.072Z,17.42
2022-09-25T06:21:02.977Z,20.08
2022-09-25T06:23:30.984Z,13.20
2022-09-25T06:26:05.948Z,18.42
2022-09-25T06:31:03.792Z,12.48
2022-09-25T06:33:32.075Z,15.82
2022-09-25T06:36:00.848Z,15.18
2022-09-25T06:38:28.800Z,13.60
2022-09-25T06:41:00.091Z,14.73
2022-09-25T06:43:28.546Z,15.80
2022-09-25T06:45:59.760Z,16.25
2022-09-25T06:48:27.235Z,14.18
2022-09-25T06:50:56.543Z,12.68
2022-09-25T06:53:25.353Z,17.70
2022-09-25T06:55:55.971Z,16.60
2022-09-25T06:58:24.214Z,13.65
2022-09-25T07:00:53.512Z,17.15
2022-09-25T07:03:40.377Z,12.93
2022-09-25T07:06:09.942Z,16.05
2022-09-25T07:08:37.573Z,18.37
2022-09-25T07:11:05.454Z,17.58
2022-09-25T07:13:35.052Z,18.45
2022-09-25T07:16:07.008Z,25.50
2022-09-25T07:18:34.944Z,20.55
2022-09-25T07:21:05.189Z,14.55
2022-09-25T07:23:33.798Z,16.37
2022-09-25T07:26:09.849Z,15.63
2022-09-25T07:28:38.432Z,17.02
2022-09-25T07:31:20.499Z,15.23
2022-09-25T07:33:48.418Z,16.92
2022-09-25T07:36:17.158Z,18.33
2022-09-25T07:38:46.197Z,17.65
2022-09-25T07:41:13.784Z,18.37
2022-09-25T07:43:44.375Z,13.73
2022-09-25T07:46:12.510Z,7.40
2022-09-25T07:48:40.090Z,10.43
2022-09-25T07:51:11.359Z,9.27
2022-09-25T07:53:39.383Z,7.68
2022-09-25T07:56:07.464Z,6.50
2022-09-25T07:58:35.847Z,8.02
2022-09-25T08:01:05.715Z,6.82
2022-09-25T08:03:33.836Z,7.55
2022-09-25T08:06:03.283Z,9.10
2022-09-25T08:08:30.842Z,7.47
2022-09-25T08:11:03.178Z,7.37
2022-09-25T08:13:32.422Z,10.00
2022-09-25T08:16:07.344Z,6.55
2022-09-25T08:18:34.875Z,8.20
2022-09-25T08:21:03.493Z,7.55
2022-09-25T08:23:31.838Z,7.15
2022-09-25T08:25:59.794Z,8.02
2022-09-25T08:28:28.307Z,10.80
2022-09-25T08:30:58.963Z,9.50
2022-09-25T08:33:27.010Z,13.35
2022-09-25T08:35:59.363Z,14.73
2022-09-25T08:38:27.602Z,12.52
2022-09-25T08:40:59.505Z,11.65
2022-09-25T08:43:28.424Z,11.45
2022-09-25T08:46:17.345Z,9.43
2022-09-25T08:49:02.219Z,5.65
2022-09-25T08:51:30.925Z,7.35
2022-09-25T08:53:59.746Z,6.55
2022-09-25T08:56:28.687Z,5.30
2022-09-25T08:59:15.301Z,7.07
2022-09-25T09:01:52.279Z,5.10
2022-09-25T09:04:24.460Z,5.30
2022-09-25T09:07:25.285Z,4.05
2022-09-25T09:12:21.397Z,5.85
2022-09-25T09:14:51.782Z,5.53
2022-09-25T09:17:22.172Z,5.20
2022-09-25T09:20:00.490Z,6.22
2022-09-25T09:22:37.890Z,5.15
2022-09-25T09:25:09.311Z,6.07
2022-09-25T09:27:37.009Z,4.72
2022-09-25T09:30:17.742Z,5.87
2022-09-25T09:33:09.612Z,5.03
2022-09-25T09:35:36.949Z,5.32
2022-09-25T09:38:26.244Z,5.70
2022-09-25T09:41:13.044Z,7.57
2022-09-25T09:43:40.688Z,4.62
2022-09-25T09:46:18.995Z,4.70
2022-09-25T09:49:14.874Z,4.70
2022-09-25T09:51:47.893Z,8.32
2022-09-25T09:54:22.475Z,4.20
2022-09-25T09:56:51.696Z,7.07
2022-09-25T09:59:23.267Z,8.32
2022-09-25T10:01:59.850Z,5.87
2022-09-25T10:04:32.017Z,6.43
2022-09-25T10:07:04.785Z,5.07
2022-09-25T10:09:32.691Z,6.10
2022-09-25T10:12:08.269Z,4.70
2022-09-25T10:14:42.512Z,6.12
2022-09-25T10:17:13.453Z,7.82
2022-09-25T10:19:55.654Z,5.90
2022-09-25T10:22:28.128Z,9.00
2022-09-25T10:25:01.782Z,7.65
2022-09-25T10:27:36.521Z,5.90
2022-09-25T10:30:10.358Z,7.10
2022-09-25T10:32:51.280Z,7.50
2022-09-25T10:35:37.006Z,7.07
2022-09-25T10:38:14.931Z,7.22
2022-09-25T10:40:46.635Z,10.32
2022-09-25T10:43:20.613Z,6.28
2022-09-25T10:45:49.282Z,5.57
2022-09-25T10:48:46.517Z,6.40
2022-09-25T10:51:17.432Z,5.32
2022-09-25T10:53:46.161Z,4.95
2022-09-25T10:56:36.020Z,5.72
2022-09-25T10:59:03.942Z,4.85
2022-09-25T11:01:38.491Z,4.97
2022-09-25T11:04:25.194Z,6.62
2022-09-25T11:07:04.930Z,5.53
2022-09-25T11:09:33.766Z,6.82
2022-09-25T11:12:14.518Z,5.40
2022-09-25T11:15:03.188Z,6.47
2022-09-25T11:17:42.431Z,5.05
2022-09-25T11:20:19.106Z,4.35
2022-09-25T11:23:18.833Z,4.45
2022-09-25T11:25:57.187Z,4.60
2022-09-25T11:28:35.401Z,4.87
2022-09-25T11:31:26.794Z,4.78
2022-09-25T11:34:43.067Z,4.78
2022-09-25T11:37:26.065Z,6.57
2022-09-25T11:40:15.433Z,5.70
2022-09-25T11:42:48.674Z,5.50
2022-09-25T11:45:23.289Z,4.18
2022-09-25T11:47:55.171Z,5.27
2022-09-25T11:50:34.736Z,5.70
2022-09-25T11:53:27.706Z,5.03
2022-09-25T11:56:15.268Z,6.15
2022-09-25T11:58:49.259Z,5.53
2022-09-25T12:01:32.686Z,5.78
2022-09-25T12:04:25.354Z,3.83
2022-09-25T12:06:53.314Z,6.15
2022-09-25T12:09:50.160Z,5.78
2022-09-25T12:12:32.908Z,6.87
2022-09-25T12:15:00.481Z,6.47
2022-09-25T12:18:05.113Z,8.52
2022-09-25T12:20:48.161Z,9.95
2022-09-25T12:23:30.155Z,10.15
2022-09-25T12:26:06.909Z,7.15
2022-09-25T12:28:58.607Z,8.73
2022-09-25T12:31:35.054Z,8.38
2022-09-25T12:34:19.612Z,8.82
2022-09-25T12:37:08.031Z,8.45
2022-09-25T12:39:41.282Z,13.32
2022-09-25T12:42:17.519Z,10.63
2022-09-25T12:45:00.474Z,10.65
2022-09-25T12:47:43.084Z,10.07
2022-09-25T12:50:14.782Z,10.63
2022-09-25T12:52:53.646Z,28.85
2022-09-25T12:55:26.101Z,12.23
2022-09-25T12:58:34.437Z,10.43
2022-09-25T13:01:25.674Z,9.38
2022-09-25T13:04:26.345Z,9.57
2022-09-25T13:07:10.185Z,9.88
2022-09-25T13:09:46.560Z,9.38
2022-09-25T13:12:29.226Z,8.02
2022-09-25T13:15:04.958Z,8.82
2022-09-25T13:17:32.503Z,8.45
2022-09-25T13:20:28.581Z,8.00
2022-09-25T13:23:01.789Z,8.30
2022-09-25T13:25:30.338Z,9.05
2022-09-25T13:28:06.111Z,10.63
2022-09-25T13:30:34.026Z,12.80
2022-09-25T13:33:03.284Z,12.07
2022-09-25T13:35:32.466Z,11.88
2022-09-25T13:38:39.174Z,14.27
2022-09-25T13:43:38.526Z,17.77
2022-09-25T13:46:20.003Z,138.77
2022-09-25T13:48:48.419Z,56.50
2022-09-25T13:51:22.484Z,44.45
2022-09-25T13:54:25.759Z,15.93
2022-09-25T13:56:54.275Z,13.25
2022-09-25T13:59:24.583Z,21.50
2022-09-25T14:01:56.453Z,21.95
2022-09-25T14:04:30.890Z,17.75
2022-09-25T14:07:28.887Z,11.90
2022-09-25T14:09:58.053Z,10.30
2022-09-25T14:12:42.578Z,9.73
2022-09-25T14:15:24.392Z,11.05
2022-09-25T14:17:53.279Z,11.65
2022-09-25T14:20:32.148Z,13.40
2022-09-25T14:23:03.305Z,14.05
2022-09-25T14:25:33.933Z,15.90
2022-09-25T14:28:02.624Z,16.58
2022-09-25T14:30:31.002Z,16.60
2022-09-25T14:33:32.858Z,15.77
2022-09-25T14:36:22.308Z,14.95
2022-09-25T14:38:52.946Z,13.10
2022-09-25T14:41:35.236Z,14.68
2022-09-25T14:44:18.401Z,13.88
2022-09-25T14:46:49.683Z,12.95
2022-09-25T14:49:24.598Z,9.57
2022-09-25T14:51:54.836Z,11.63
2022-09-25T14:54:24.456Z,13.13
2022-09-25T14:56:55.610Z,12.07
2022-09-25T14:59:42.656Z,11.98
2022-09-25T15:02:19.924Z,15.98
2022-09-25T15:04:47.719Z,13.70
2022-09-25T15:07:20.838Z,16.17
2022-09-25T15:09:49.623Z,14.40
2022-09-25T15:12:26.042Z,14.98
2022-09-25T15:15:17.294Z,14.13
2022-09-25T15:17:57.973Z,14.95
2022-09-25T15:20:33.680Z,13.60
2022-09-25T15:23:03.747Z,16.10
2022-09-25T15:25:40.102Z,15.48
2022-09-25T15:28:08.909Z,13.18
2022-09-25T15:30:37.813Z,12.60
2022-09-25T15:33:06.333Z,12.32
2022-09-25T15:35:33.895Z,11.12
2022-09-25T15:38:28.315Z,12.63
2022-09-25T15:41:01.667Z,14.43
2022-09-25T15:43:32.190Z,10.50
2022-09-25T15:46:09.036Z,14.15
2022-09-25T15:48:39.582Z,13.05
2022-09-25T15:51:18.026Z,14.35
2022-09-25T15:53:57.642Z,13.95
2022-09-25T15:56:30.208Z,14.10
2022-09-25T15:59:25.320Z,14.70
2022-09-25T16:02:11.535Z,14.77
2022-09-25T16:04:52.113Z,14.30
2022-09-25T16:07:32.091Z,15.15
2022-09-25T16:10:10.434Z,15.25
2022-09-25T16:12:47.885Z,16.60
2022-09-25T16:15:27.877Z,14.45
2022-09-25T16:18:05.170Z,12.98
2022-09-25T16:20:37.059Z,14.85
2022-09-25T16:23:07.627Z,12.27
2022-09-25T16:25:37.888Z,10.00
2022-09-25T16:28:07.172Z,10.98
2022-09-25T16:30:35.270Z,16.30
2022-09-25T16:33:19.864Z,12.88
2022-09-25T16:36:09.345Z,13.18
2022-09-25T16:38:38.422Z,10.43
2022-09-25T16:41:19.111Z,11.20
2022-09-25T16:43:47.543Z,32.35
2022-09-25T16:46:20.495Z,44.92
2022-09-25T16:49:01.851Z,44.85
2022-09-25T16:51:32.889Z,35.20
2022-09-25T16:54:01.435Z,43.55
2022-09-25T16:56:31.509Z,42.00
2022-09-25T16:58:59.360Z,50.60
2022-09-25T17:01:27.991Z,38.88
2022-09-25T17:03:59.867Z,31.92
2022-09-25T17:06:31.326Z,29.58
2022-09-25T17:09:00.143Z,32.80
2022-09-25T17:11:27.658Z,29.95
2022-09-25T17:13:56.258Z,29.77
2022-09-25T17:16:24.112Z,27.45
2022-09-25T17:18:51.597Z,24.85
2022-09-25T17:21:20.146Z,17.90
2022-09-25T17:23:47.952Z,19.87
2022-09-25T17:26:19.112Z,21.35
2022-09-25T17:28:47.232Z,23.52
2022-09-25T17:31:20.716Z,23.67
2022-09-25T17:33:50.234Z,18.75
2022-09-25T17:36:18.271Z,15.38
2022-09-25T17:38:45.766Z,13.32
2022-09-25T17:41:31.311Z,17.20
2022-09-25T17:43:59.130Z,17.98
2022-09-25T17:46:26.836Z,15.93
2022-09-25T17:48:55.000Z,19.25
2022-09-25T17:51:25.083Z,18.55
2022-09-25T17:53:53.920Z,17.65
2022-09-25T17:56:22.009Z,19.33
2022-09-25T17:58:51.205Z,16.75
2022-09-25T18:01:23.751Z,19.58
2022-09-25T18:04:00.273Z,18.50
2022-09-25T18:06:29.773Z,21.77
2022-09-25T18:08:57.574Z,20.77
2022-09-25T18:11:25.756Z,20.80
2022-09-25T18:13:54.378Z,20.02
2022-09-25T18:16:27.169Z,23.15
2022-09-25T18:19:13.477Z,19.98
2022-09-25T18:21:59.959Z,24.55
2022-09-25T18:24:28.210Z,21.33
2022-09-25T18:26:57.105Z,20.90
2022-09-25T18:29:24.919Z,19.85
2022-09-25T18:31:52.647Z,22.73
2022-09-25T18:34:21.828Z,20.37
2022-09-25T18:36:51.070Z,19.08
2022-09-25T18:39:20.307Z,22.25
2022-09-25T18:41:48.589Z,18.33
2022-09-25T18:44:17.910Z,17.17
2022-09-25T18:46:45.577Z,20.15
2022-09-25T18:49:14.276Z,21.10
2022-09-25T18:51:43.203Z,21.40
2022-09-25T18:54:14.072Z,22.02
2022-09-25T18:56:43.443Z,17.60
2022-09-25T18:59:12.352Z,19.98
2022-09-25T19:01:41.392Z,18.08
2022-09-25T19:04:15.996Z,19.10
2022-09-25T19:06:44.096Z,18.52
2022-09-25T19:09:16.323Z,18.52
2022-09-25T19:11:44.563Z,20.33
2022-09-25T19:14:13.147Z,18.58
2022-09-25T19:16:40.758Z,18.65
2022-09-25T19:19:08.373Z,17.83
2022-09-25T19:21:36.293Z,21.35
2022-09-25T19:24:04.654Z,20.15
2022-09-25T19:26:35.179Z,19.77
2022-09-25T19:29:05.189Z,20.37
2022-09-25T19:31:32.998Z,18.92
2022-09-25T19:34:02.813Z,18.73
2022-09-25T19:36:32.537Z,20.30
2022-09-25T19:39:00.989Z,19.08
2022-09-25T19:41:34.097Z,18.75
2022-09-25T19:44:11.214Z,19.00
2022-09-25T19:46:44.302Z,18.17
2022-09-25T19:49:14.054Z,19.00
2022-09-25T19:51:42.273Z,18.58
2022-09-25T19:54:12.358Z,19.58
2022-09-25T19:56:41.948Z,19.70
2022-09-25T19:59:13.818Z,17.25
2022-09-25T20:01:43.189Z,17.35
2022-09-25T20:04:17.181Z,17.45
2022-09-25T20:06:46.470Z,16.33
2022-09-25T20:09:14.540Z,19.10
2022-09-25T20:11:43.338Z,18.55
2022-09-25T20:14:11.312Z,19.40
2022-09-25T20:16:39.142Z,17.60
2022-09-25T20:19:07.308Z,20.15
2022-09-25T20:21:37.186Z,19.08
2022-09-25T20:24:07.320Z,18.87
2022-09-25T20:26:36.443Z,19.62
2022-09-25T20:29:09.726Z,18.30
2022-09-25T20:31:39.298Z,18.77
2022-09-25T20:34:06.881Z,19.15
2022-09-25T20:36:36.314Z,19.60
2022-09-25T20:39:04.647Z,19.67
2022-09-25T20:41:33.289Z,19.55
2022-09-25T20:44:00.830Z,16.40
2022-09-25T20:46:29.995Z,18.23
2022-09-25T20:48:58.658Z,18.00
2022-09-25T20:51:32.874Z,18.62
2022-09-25T20:54:06.741Z,16.65
2022-09-25T20:56:35.607Z,19.15
2022-09-25T20:59:04.760Z,18.80
2022-09-25T21:01:34.769Z,19.40
2022-09-25T21:04:04.829Z,12.82
2022-09-25T21:06:33.674Z,18.08
2022-09-25T21:09:03.769Z,16.50
2022-09-25T21:11:32.313Z,19.65
2022-09-25T21:14:02.639Z,17.23
2022-09-25T21:16:31.263Z,20.67
2022-09-25T21:19:01.140Z,18.15
2022-09-25T21:21:29.713Z,17.40
2022-09-25T21:23:58.001Z,15.75
2022-09-25T21:26:27.607Z,17.08
2022-09-25T21:28:56.631Z,16.27
2022-09-25T21:31:27.870Z,17.23
2022-09-25T21:33:57.009Z,17.90
2022-09-25T21:36:26.434Z,18.77
2022-09-25T21:38:54.015Z,16.60
2022-09-25T21:41:23.788Z,16.67
2022-09-25T21:43:59.105Z,17.80
2022-09-25T21:46:27.958Z,19.25
2022-09-25T21:48:57.736Z,19.52
2022-09-25T21:51:28.043Z,18.65
2022-09-25T21:53:56.202Z,18.50
2022-09-25T21:56:25.639Z,16.52
2022-09-25T21:58:55.072Z,18.35
2022-09-25T22:01:26.011Z,18.42
2022-09-25T22:03:55.806Z,18.27
2022-09-25T22:06:26.394Z,17.65
2022-09-25T22:08:56.596Z,17.17
2022-09-25T22:11:24.124Z,17.12
2022-09-25T22:13:51.901Z,16.23
2022-09-25T22:16:22.025Z,16.50
2022-09-25T22:19:14.267Z,17.15
2022-09-25T22:21:43.241Z,19.48
2022-09-25T22:24:11.376Z,21.98
2022-09-25T22:26:40.983Z,19.10
2022-09-25T22:29:09.421Z,18.30
2022-09-25T22:31:38.549Z,19.12
2022-09-25T22:34:08.426Z,17.95
2022-09-25T22:36:36.390Z,18.60
2022-09-25T22:39:05.214Z,20.25
2022-09-25T22:41:33.168Z,21.10
2022-09-25T22:44:01.549Z,18.80
2022-09-25T22:46:29.415Z,23.35
2022-09-25T22:48:56.964Z,22.08
2022-09-25T22:51:25.950Z,17.45
2022-09-25T22:53:54.347Z,20.60
2022-09-25T22:56:27.942Z,20.83
2022-09-25T22:58:58.126Z,15.93
2022-09-25T23:01:27.447Z,20.58
2022-09-25T23:03:57.236Z,21.17
2022-09-25T23:06:27.391Z,20.85
2022-09-25T23:08:58.041Z,21.42
2022-09-25T23:11:27.395Z,18.50
2022-09-25T23:14:17.330Z,19.27
2022-09-25T23:16:48.361Z,19.70
2022-09-25T23:19:17.421Z,19.52
2022-09-25T23:21:46.329Z,17.67
2022-09-25T23:24:16.360Z,20.33
2022-09-25T23:26:44.358Z,24.12
2022-09-25T23:29:13.780Z,20.42
2022-09-25T23:31:42.343Z,17.48
2022-09-25T23:34:10.318Z,20.48
2022-09-25T23:36:38.452Z,19.67
2022-09-25T23:39:06.857Z,20.25
2022-09-25T23:41:36.542Z,16.45
2022-09-25T23:44:07.053Z,15.52
2022-09-25T23:46:36.567Z,16.60
2022-09-25T23:49:05.308Z,15.25
2022-09-25T23:51:33.464Z,18.42
2022-09-25T23:54:01.787Z,17.90
2022-09-25T23:56:31.854Z,15.30
2022-09-25T23:59:01.234Z,17.15
